Time;durP1;ratioP1;P1;durP2;ratioP2;P2;SDS_P1;SDS_P2;PMS_P1;PMS_P2;Temp;Humidity;BMP_temperature;BMP_pressure;BME280_temperature;BME280_humidity;BME280_pressure;Samples;Min_cycle;Max_cycle;Signal;HPM_P1;HPM_P2
2021/12/03 00:02:17;;;;;;;13.80;6.23;;;2.50;74.20;;;;;;4863912;29;20405;-71
2021/12/03 00:04:43;;;;;;;11.13;6.43;;;2.50;74.20;;;;;;4861249;29;20124;-71
2021/12/03 00:07:09;;;;;;;11.33;5.97;;;2.50;74.20;;;;;;4865156;29;20078;-71
2021/12/03 00:09:35;;;;;;;12.07;6.23;;;2.50;74.20;;;;;;4882084;29;20506;-71
2021/12/03 00:12:02;;;;;;;10.87;5.87;;;2.50;74.20;;;;;;4869020;29;20041;-71
2021/12/03 00:14:28;;;;;;;9.50;5.73;;;2.50;74.30;;;;;;4860005;29;20042;-71
2021/12/03 00:16:54;;;;;;;9.77;5.90;;;2.50;74.30;;;;;;4861560;29;20057;-71
2021/12/03 00:19:19;;;;;;;11.17;5.37;;;2.50;74.20;;;;;;4863399;29;20422;-71
2021/12/03 00:21:45;;;;;;;10.47;4.80;;;2.50;74.20;;;;;;4865481;29;20119;-71
2021/12/03 00:24:11;;;;;;;9.17;4.57;;;2.50;74.20;;;;;;4868731;29;20045;-71
2021/12/03 00:26:37;;;;;;;9.93;4.63;;;2.50;74.30;;;;;;4864318;29;20536;-71
2021/12/03 00:29:03;;;;;;;9.05;5.07;;;2.50;74.30;;;;;;4863660;29;20087;-71
2021/12/03 00:31:29;;;;;;;10.20;4.60;;;2.50;74.30;;;;;;4846102;29;20058;-71
2021/12/03 00:33:55;;;;;;;6.25;3.20;;;2.50;74.30;;;;;;4861712;29;20103;-71
2021/12/03 00:36:22;;;;;;;8.68;3.38;;;2.50;74.30;;;;;;4876509;29;20064;-71
2021/12/03 00:38:53;;;;;;;7.15;3.58;;;2.50;74.30;;;;;;4862366;29;20053;-71
2021/12/03 00:41:20;;;;;;;8.40;3.77;;;2.50;74.20;;;;;;4861898;29;20078;-70
2021/12/03 00:43:47;;;;;;;7.30;4.17;;;2.50;74.20;;;;;;4867163;29;20101;-71
2021/12/03 00:46:17;;;;;;;9.35;3.88;;;2.50;74.40;;;;;;4863452;29;20116;-71
2021/12/03 00:48:48;;;;;;;8.80;4.68;;;2.50;74.30;;;;;;4871197;29;20044;-71
2021/12/03 00:51:14;;;;;;;9.73;5.10;;;2.50;74.30;;;;;;4861468;29;20128;-71
2021/12/03 00:53:40;;;;;;;7.63;4.40;;;2.50;74.30;;;;;;4859736;29;20501;-71
2021/12/03 00:56:08;;;;;;;10.05;5.18;;;2.50;74.30;;;;;;4860735;29;20490;-71
2021/12/03 00:58:34;;;;;;;9.50;5.10;;;2.50;74.50;;;;;;4866417;29;20072;-72
2021/12/03 01:01:00;;;;;;;10.33;6.30;;;2.50;74.40;;;;;;4874288;29;20050;-71
2021/12/03 01:03:26;;;;;;;8.88;5.82;;;2.50;74.50;;;;;;4861322;29;20766;-72
2021/12/03 01:05:51;;;;;;;10.85;6.22;;;2.50;74.60;;;;;;4862587;29;20045;-71
2021/12/03 01:08:17;;;;;;;10.47;6.33;;;2.50;75.00;;;;;;4864656;29;20441;-71
2021/12/03 01:10:43;;;;;;;11.17;7.73;;;2.50;74.60;;;;;;4845849;29;20042;-72
2021/12/03 01:13:08;;;;;;;9.93;7.10;;;2.50;74.60;;;;;;4860686;29;20174;-72
2021/12/03 01:15:37;;;;;;;13.63;7.20;;;2.50;74.70;;;;;;4864044;29;20054;-71
2021/12/03 01:18:05;;;;;;;9.50;7.10;;;2.60;74.80;;;;;;4861173;29;20124;-72
2021/12/03 01:20:31;;;;;;;10.27;6.97;;;2.50;74.80;;;;;;4870383;29;20557;-72
2021/12/03 01:22:58;;;;;;;12.05;7.70;;;2.60;74.90;;;;;;4876277;29;20056;-72
2021/12/03 01:25:24;;;;;;;12.70;7.63;;;2.60;74.90;;;;;;4863604;29;20059;-71
2021/12/03 01:27:51;;;;;;;12.57;8.93;;;2.60;74.90;;;;;;4861112;29;20053;-71
2021/12/03 01:30:19;;;;;;;11.23;7.97;;;2.60;74.90;;;;;;4864328;29;20505;-71
2021/12/03 01:32:46;;;;;;;10.95;7.88;;;2.60;75.40;;;;;;4871397;29;20049;-71
2021/12/03 01:35:12;;;;;;;10.75;8.45;;;2.60;75.00;;;;;;4864600;29;20090;-71
2021/12/03 01:37:39;;;;;;;14.07;9.27;;;2.60;74.90;;;;;;4867602;29;20045;-71
2021/12/03 01:40:07;;;;;;;12.52;8.80;;;2.60;74.90;;;;;;4860311;29;20046;-71
2021/12/03 01:42:33;;;;;;;12.73;9.05;;;2.60;74.90;;;;;;4861125;29;20128;-71
2021/12/03 01:44:59;;;;;;;12.82;8.57;;;2.60;74.90;;;;;;4861409;29;20469;-71
2021/12/03 01:47:24;;;;;;;11.98;8.63;;;2.60;74.90;;;;;;4874077;29;20045;-71
2021/12/03 01:49:50;;;;;;;13.07;9.20;;;2.70;75.00;;;;;;4858607;29;20090;-71
2021/12/03 01:52:16;;;;;;;14.30;9.30;;;2.70;75.10;;;;;;4860558;29;20057;-71
2021/12/03 01:54:42;;;;;;;14.68;9.65;;;2.70;74.90;;;;;;4864517;29;20055;-71
2021/12/03 01:57:08;;;;;;;14.95;9.23;;;2.70;75.00;;;;;;4862840;29;20057;-71
2021/12/03 01:59:34;;;;;;;17.45;9.32;;;2.70;74.90;;;;;;4860400;29;20046;-71
2021/12/03 02:02:00;;;;;;;11.07;8.93;;;2.70;74.90;;;;;;4855562;29;20050;-71
2021/12/03 02:04:25;;;;;;;12.88;9.63;;;2.70;75.00;;;;;;4850042;29;20543;-71
2021/12/03 02:06:51;;;;;;;13.73;10.15;;;2.70;75.00;;;;;;4860353;29;20478;-71
2021/12/03 02:09:17;;;;;;;11.48;9.18;;;2.70;75.00;;;;;;4860715;29;20045;-71
2021/12/03 02:11:43;;;;;;;11.50;8.40;;;2.70;75.00;;;;;;4859470;29;20045;-70
2021/12/03 02:14:08;;;;;;;12.23;8.80;;;2.70;75.00;;;;;;4860084;29;20522;-71
2021/12/03 02:16:34;;;;;;;12.07;9.23;;;2.70;75.00;;;;;;4868329;29;20056;-71
2021/12/03 02:19:00;;;;;;;13.25;9.02;;;2.70;74.90;;;;;;4850056;29;20840;-71
2021/12/03 02:21:26;;;;;;;12.73;9.90;;;2.70;74.90;;;;;;4839626;29;20101;-71
2021/12/03 02:23:52;;;;;;;13.65;9.88;;;2.70;74.90;;;;;;4839388;29;20482;-71
2021/12/03 02:26:19;;;;;;;11.20;8.50;;;2.70;74.90;;;;;;4868083;29;20438;-71
2021/12/03 02:28:48;;;;;;;13.13;9.90;;;2.80;75.00;;;;;;4868157;29;20566;-71
2021/12/03 02:31:16;;;;;;;13.60;9.40;;;2.80;75.00;;;;;;4857025;29;20057;-71
2021/12/03 02:33:42;;;;;;;11.27;9.40;;;2.80;74.90;;;;;;4864032;29;20501;-71
2021/12/03 02:36:08;;;;;;;12.70;10.03;;;2.80;74.90;;;;;;4846757;29;20097;-71
2021/12/03 02:38:34;;;;;;;12.05;8.75;;;2.80;74.90;;;;;;4858118;29;20057;-71
2021/12/03 02:41:00;;;;;;;12.65;8.82;;;2.80;74.80;;;;;;4861346;29;20393;-71
2021/12/03 02:43:27;;;;;;;15.60;9.52;;;2.80;74.80;;;;;;4860935;29;21806;-71
2021/12/03 02:45:53;;;;;;;11.55;9.18;;;2.80;74.80;;;;;;4859880;29;20494;-70
2021/12/03 02:48:20;;;;;;;11.05;8.45;;;2.80;74.80;;;;;;4859933;29;20401;-71
2021/12/03 02:50:46;;;;;;;12.30;9.25;;;2.80;74.80;;;;;;4876693;29;20060;-71
2021/12/03 02:53:12;;;;;;;12.65;9.25;;;2.80;74.70;;;;;;4860148;29;20049;-71
2021/12/03 02:55:38;;;;;;;12.18;9.88;;;2.80;74.70;;;;;;4871650;29;20068;-71
2021/12/03 02:58:03;;;;;;;11.25;9.10;;;2.80;74.60;;;;;;4856593;29;20108;-71
2021/12/03 03:00:30;;;;;;;13.50;9.07;;;2.80;75.00;;;;;;4864726;29;20057;-71
2021/12/03 03:02:57;;;;;;;12.65;9.38;;;2.80;74.60;;;;;;4867128;29;20056;-71
2021/12/03 03:05:24;;;;;;;10.48;8.65;;;2.80;74.60;;;;;;4865994;29;20135;-71
2021/12/03 03:07:50;;;;;;;11.13;9.18;;;2.80;74.50;;;;;;4863762;29;20070;-71
2021/12/03 03:10:23;;;;;;;11.87;8.93;;;2.80;74.50;;;;;;4863648;29;20068;-71
2021/12/03 03:12:48;;;;;;;12.40;8.37;;;2.80;74.50;;;;;;4863284;29;20093;-71
2021/12/03 03:15:16;;;;;;;9.77;8.20;;;2.80;74.40;;;;;;4860126;29;20161;-70
2021/12/03 03:17:43;;;;;;;10.02;8.02;;;2.80;74.40;;;;;;4860861;29;20498;-71
2021/12/03 03:20:10;;;;;;;11.55;8.50;;;2.90;74.40;;;;;;4860491;29;20132;-71
2021/12/03 03:22:37;;;;;;;10.50;8.60;;;2.80;74.40;;;;;;4860376;29;20505;-71
2021/12/03 03:25:05;;;;;;;10.23;7.60;;;2.80;74.30;;;;;;4860684;29;20057;-71
2021/12/03 03:27:31;;;;;;;12.30;8.82;;;2.80;74.30;;;;;;4858967;29;20092;-71
2021/12/03 03:29:57;;;;;;;11.85;8.15;;;2.80;74.30;;;;;;4860315;29;20068;-71
2021/12/03 03:32:24;;;;;;;9.32;8.25;;;2.80;74.20;;;;;;4867120;29;20545;-71
2021/12/03 03:34:49;;;;;;;13.43;9.20;;;2.80;74.20;;;;;;4855740;29;20054;-71
2021/12/03 03:37:16;;;;;;;11.27;8.57;;;2.80;74.20;;;;;;4866392;29;20509;-71
2021/12/03 03:39:43;;;;;;;11.25;8.57;;;2.80;74.20;;;;;;4861613;29;20057;-71
2021/12/03 03:42:09;;;;;;;9.57;8.52;;;2.80;74.20;;;;;;4870219;29;20063;-71
2021/12/03 03:44:36;;;;;;;10.20;8.00;;;2.80;74.20;;;;;;4862112;29;20041;-71
2021/12/03 03:47:04;;;;;;;12.30;9.00;;;2.80;74.10;;;;;;4868503;29;20045;-70
2021/12/03 03:49:30;;;;;;;12.07;9.35;;;2.80;74.10;;;;;;4860527;29;20109;-71
2021/12/03 03:51:56;;;;;;;12.23;8.52;;;2.70;74.00;;;;;;4872694;29;20049;-71
2021/12/03 03:54:22;;;;;;;12.90;8.98;;;2.80;74.10;;;;;;4872648;29;20070;-71
2021/12/03 03:56:48;;;;;;;11.23;8.50;;;2.80;74.10;;;;;;4864544;29;20087;-72
2021/12/03 03:59:17;;;;;;;12.23;9.02;;;2.80;74.10;;;;;;4869308;29;20037;-72
2021/12/03 04:01:48;;;;;;;11.38;8.73;;;2.70;74.00;;;;;;4877115;29;20124;-72
2021/12/03 04:04:15;;;;;;;10.32;8.45;;;2.70;74.00;;;;;;4872937;29;20058;-72
2021/12/03 04:06:42;;;;;;;12.40;9.45;;;2.70;74.00;;;;;;4864809;29;20421;-71
2021/12/03 04:09:08;;;;;;;11.05;8.75;;;2.70;73.90;;;;;;4865989;29;20045;-72
2021/12/03 04:11:35;;;;;;;15.02;9.82;;;2.70;73.90;;;;;;4876789;29;20120;-71
2021/12/03 04:14:01;;;;;;;10.75;8.43;;;2.70;74.00;;;;;;4869100;29;20060;-71
2021/12/03 04:16:26;;;;;;;10.38;9.32;;;2.70;74.00;;;;;;4861464;29;20124;-71
2021/12/03 04:18:53;;;;;;;13.75;9.88;;;2.70;74.00;;;;;;4863208;29;20193;-71
2021/12/03 04:21:18;;;;;;;12.82;9.30;;;2.70;74.00;;;;;;4875754;29;20054;-71
2021/12/03 04:23:44;;;;;;;12.93;9.25;;;2.70;74.00;;;;;;4862653;29;20421;-71
2021/12/03 04:26:10;;;;;;;11.73;9.13;;;2.70;74.00;;;;;;4863995;29;20053;-71
2021/12/03 04:28:36;;;;;;;11.25;9.35;;;2.70;74.00;;;;;;4864408;29;20049;-71
2021/12/03 04:31:02;;;;;;;12.32;8.82;;;2.60;74.00;;;;;;4866628;29;20054;-70
2021/12/03 04:33:28;;;;;;;10.30;9.03;;;2.60;74.00;;;;;;4873015;29;20046;-71
2021/12/03 04:35:54;;;;;;;10.33;9.07;;;2.60;74.00;;;;;;4862989;29;20049;-71
2021/12/03 04:38:20;;;;;;;11.23;9.37;;;2.60;74.10;;;;;;4863096;29;20049;-71
2021/12/03 04:40:47;;;;;;;15.88;9.63;;;2.60;74.10;;;;;;4868316;29;20052;-71
2021/12/03 04:43:12;;;;;;;14.70;9.82;;;2.60;74.50;;;;;;4864060;29;20117;-71
2021/12/03 04:45:38;;;;;;;13.17;9.50;;;2.60;74.10;;;;;;4864266;29;20085;-71
2021/12/03 04:48:06;;;;;;;11.63;9.10;;;2.60;74.10;;;;;;4859602;29;20508;-71
2021/12/03 04:50:36;;;;;;;10.70;8.82;;;2.60;74.60;;;;;;4869580;29;20409;-71
2021/12/03 04:53:03;;;;;;;14.07;9.48;;;2.60;74.20;;;;;;4872095;29;20089;-71
2021/12/03 04:55:29;;;;;;;13.90;9.95;;;2.60;74.20;;;;;;4870458;29;20046;-71
2021/12/03 04:57:55;;;;;;;14.77;9.63;;;2.60;74.20;;;;;;4861076;29;20044;-71
2021/12/03 05:00:27;;;;;;;10.50;8.50;;;2.60;74.20;;;;;;4862365;29;20045;-71
2021/12/03 05:02:54;;;;;;;11.52;9.25;;;2.60;74.20;;;;;;4863380;29;20406;-71
2021/12/03 05:05:22;;;;;;;12.80;10.13;;;2.60;74.20;;;;;;4864692;29;20049;-71
2021/12/03 05:08:02;;;;;;;14.48;9.30;;;2.60;74.30;;;;;;4868998;29;20073;-71
2021/12/03 05:10:30;;;;;;;13.27;9.90;;;2.60;74.30;;;;;;4875292;29;20050;-71
2021/12/03 05:13:00;;;;;;;15.38;9.82;;;2.50;74.40;;;;;;4870728;29;20109;-72
2021/12/03 05:15:26;;;;;;;16.47;10.20;;;2.60;74.50;;;;;;4860242;29;20160;-71
2021/12/03 05:17:52;;;;;;;13.13;9.15;;;2.50;74.50;;;;;;4860195;29;20050;-71
2021/12/03 05:20:18;;;;;;;12.10;10.10;;;2.60;74.60;;;;;;4862682;29;20051;-71
2021/12/03 05:22:44;;;;;;;15.57;9.70;;;2.60;74.70;;;;;;4874223;29;20045;-71
2021/12/03 05:25:10;;;;;;;11.93;9.38;;;2.60;74.80;;;;;;4879229;29;20064;-71
2021/12/03 05:27:36;;;;;;;11.27;9.43;;;2.60;74.80;;;;;;4863946;29;20046;-71
2021/12/03 05:30:03;;;;;;;15.57;10.10;;;2.60;74.90;;;;;;4871599;29;20052;-71
2021/12/03 05:32:28;;;;;;;13.98;10.52;;;2.60;74.90;;;;;;4862905;29;20553;-71
2021/12/03 05:34:54;;;;;;;12.33;9.27;;;2.60;74.90;;;;;;4864512;29;20137;-71
2021/12/03 05:37:20;;;;;;;18.33;9.60;;;2.60;74.90;;;;;;4872506;29;20073;-72
2021/12/03 05:39:45;;;;;;;12.05;8.45;;;2.60;75.00;;;;;;4865072;29;20124;-71
2021/12/03 05:42:11;;;;;;;12.32;8.57;;;2.60;75.00;;;;;;4872535;29;20485;-72
2021/12/03 05:44:37;;;;;;;11.23;8.70;;;2.60;75.00;;;;;;4863868;29;20544;-72
2021/12/03 05:47:03;;;;;;;13.20;8.70;;;2.60;75.10;;;;;;4873637;29;20409;-72
2021/12/03 05:49:29;;;;;;;13.40;8.67;;;2.70;75.20;;;;;;4860583;29;20160;-71
2021/12/03 05:51:55;;;;;;;11.52;8.05;;;2.70;75.20;;;;;;4862416;29;20125;-72
2021/12/03 05:54:21;;;;;;;11.20;7.45;;;2.70;75.20;;;;;;4872456;29;20490;-72
2021/12/03 05:56:48;;;;;;;9.98;7.93;;;2.70;75.20;;;;;;4870184;29;20049;-72
2021/12/03 05:59:14;;;;;;;12.45;7.10;;;2.70;75.30;;;;;;4877660;29;20045;-72
2021/12/03 06:01:41;;;;;;;12.60;7.13;;;2.70;75.30;;;;;;4870096;29;20044;-72
2021/12/03 06:04:06;;;;;;;9.82;6.68;;;2.70;75.30;;;;;;4869649;29;20056;-72
2021/12/03 06:06:32;;;;;;;13.50;7.22;;;2.70;75.30;;;;;;4879720;29;20053;-72
2021/12/03 06:08:58;;;;;;;9.95;6.43;;;2.80;75.30;;;;;;4872463;29;20053;-72
2021/12/03 06:11:25;;;;;;;10.00;5.80;;;2.80;75.30;;;;;;4870873;29;20703;-72
2021/12/03 06:13:50;;;;;;;8.60;5.93;;;2.80;75.40;;;;;;4852363;29;20055;-72
2021/12/03 06:16:16;;;;;;;10.00;5.70;;;2.80;75.40;;;;;;4875825;29;20523;-72
2021/12/03 06:18:42;;;;;;;12.85;5.53;;;2.80;75.40;;;;;;4863038;29;20045;-72
2021/12/03 06:21:10;;;;;;;8.55;5.32;;;2.80;75.40;;;;;;4861035;29;20057;-72
2021/12/03 06:23:36;;;;;;;8.13;5.05;;;2.80;75.50;;;;;;4876859;29;20140;-73
2021/12/03 06:26:03;;;;;;;9.60;5.20;;;2.90;75.60;;;;;;4870134;29;20056;-77
2021/12/03 06:28:30;;;;;;;13.85;5.65;;;2.90;75.60;;;;;;4877464;29;20473;-75
2021/12/03 06:30:57;;;;;;;10.07;5.13;;;2.90;75.70;;;;;;4867999;29;20088;-75
2021/12/03 06:33:22;;;;;;;12.25;5.20;;;2.90;75.80;;;;;;4861312;29;20053;-74
2021/12/03 06:35:49;;;;;;;8.68;5.00;;;2.90;75.70;;;;;;4862034;29;20401;-74
2021/12/03 06:38:16;;;;;;;10.73;4.90;;;3.00;75.90;;;;;;4861416;29;20105;-75
2021/12/03 06:40:46;;;;;;;7.82;4.53;;;3.00;76.00;;;;;;4871909;29;20049;-75
2021/12/03 06:43:11;;;;;;;13.18;4.75;;;3.10;76.10;;;;;;4878474;29;20049;-75
2021/12/03 06:45:38;;;;;;;8.15;4.07;;;3.00;76.20;;;;;;4874588;29;20505;-76
2021/12/03 06:48:04;;;;;;;8.98;4.57;;;3.00;76.20;;;;;;4877116;29;20049;-75
2021/12/03 06:50:32;;;;;;;8.55;4.57;;;3.00;76.20;;;;;;4865196;29;20060;-76
2021/12/03 06:53:04;;;;;;;9.00;4.32;;;3.00;76.40;;;;;;4871102;29;20049;-76
2021/12/03 06:55:48;;;;;;;7.55;3.50;;;3.00;76.50;;;;;;4862675;29;20097;-75
2021/12/03 06:58:18;;;;;;;8.02;4.00;;;3.00;76.50;;;;;;4867550;29;20539;-75
2021/12/03 07:00:46;;;;;;;10.43;4.70;;;3.10;76.70;;;;;;4864320;29;20440;-76
2021/12/03 07:03:12;;;;;;;8.13;4.18;;;3.10;76.80;;;;;;4875669;29;20064;-75
2021/12/03 07:05:38;;;;;;;10.25;4.22;;;3.10;76.80;;;;;;4878279;29;20131;-76
2021/12/03 07:08:04;;;;;;;9.80;4.15;;;3.10;76.80;;;;;;4864731;29;20080;-76
2021/12/03 07:10:31;;;;;;;9.60;4.93;;;3.10;76.90;;;;;;4862566;29;20085;-76
2021/12/03 07:12:57;;;;;;;12.60;4.88;;;3.10;76.90;;;;;;4877029;29;20055;-76
2021/12/03 07:15:23;;;;;;;9.43;5.47;;;3.10;76.90;;;;;;4881641;29;20409;-76
2021/12/03 07:17:50;;;;;;;7.78;4.82;;;3.10;76.90;;;;;;4874571;29;20049;-75
2021/12/03 07:20:19;;;;;;;10.30;5.22;;;3.30;77.10;;;;;;4873721;29;20099;-76
2021/12/03 07:22:45;;;;;;;7.78;4.60;;;3.20;77.40;;;;;;4874949;29;20139;-76
2021/12/03 07:25:11;;;;;;;10.98;5.25;;;3.10;77.00;;;;;;4871459;29;20042;-76
2021/12/03 07:27:37;;;;;;;9.10;4.53;;;3.20;77.00;;;;;;4867493;29;20157;-76
2021/12/03 07:30:05;;;;;;;10.75;4.90;;;3.20;77.10;;;;;;4876840;29;20103;-76
2021/12/03 07:32:31;;;;;;;9.88;4.53;;;3.20;77.20;;;;;;4872542;29;20053;-76
2021/12/03 07:34:57;;;;;;;10.40;4.82;;;3.20;77.20;;;;;;4866166;29;20121;-76
2021/12/03 07:37:24;;;;;;;7.38;4.70;;;3.20;77.20;;;;;;4871394;29;20056;-76
2021/12/03 07:39:49;;;;;;;11.27;5.07;;;3.20;77.20;;;;;;4881412;29;20499;-75
2021/12/03 07:42:15;;;;;;;9.77;5.50;;;3.20;77.30;;;;;;4879961;29;20068;-79
2021/12/03 07:44:41;;;;;;;9.80;5.53;;;3.20;77.30;;;;;;4880857;29;20080;-75
2021/12/03 07:47:07;;;;;;;12.70;7.07;;;3.20;77.30;;;;;;4866077;29;20080;-76
2021/12/03 07:49:33;;;;;;;14.65;6.93;;;3.20;77.30;;;;;;4872261;29;20045;-76
2021/12/03 07:51:59;;;;;;;11.40;7.07;;;3.20;77.30;;;;;;4866829;29;20401;-76
2021/12/03 07:54:24;;;;;;;15.20;8.82;;;3.20;77.30;;;;;;4868147;29;20429;-75
2021/12/03 07:56:50;;;;;;;16.92;9.82;;;3.30;77.40;;;;;;4876518;29;20128;-76
2021/12/03 07:59:16;;;;;;;18.83;11.10;;;3.30;77.40;;;;;;4870739;29;20165;-76
2021/12/03 08:01:43;;;;;;;18.35;10.48;;;3.30;77.40;;;;;;4880516;29;20045;-76
2021/12/03 08:04:10;;;;;;;21.75;12.52;;;3.30;77.50;;;;;;4863767;29;20054;-77
2021/12/03 08:06:39;;;;;;;20.75;12.55;;;3.30;77.50;;;;;;4863626;29;20065;-72
2021/12/03 08:09:09;;;;;;;24.30;13.13;;;3.30;77.50;;;;;;4868135;29;20045;-72
2021/12/03 08:11:36;;;;;;;23.25;13.60;;;3.30;77.50;;;;;;4874168;29;20394;-72
2021/12/03 08:14:02;;;;;;;21.48;13.20;;;3.30;77.40;;;;;;4880767;29;20085;-72
2021/12/03 08:16:27;;;;;;;24.95;14.38;;;3.30;77.50;;;;;;4880718;29;20509;-72
2021/12/03 08:18:53;;;;;;;24.20;14.13;;;3.40;77.50;;;;;;4867543;29;20042;-72
2021/12/03 08:21:19;;;;;;;24.48;14.60;;;3.40;77.60;;;;;;4868557;29;20067;-72
2021/12/03 08:23:47;;;;;;;21.42;13.73;;;3.40;77.50;;;;;;4879213;29;20485;-72
2021/12/03 08:26:13;;;;;;;25.48;14.65;;;3.40;77.50;;;;;;4874732;29;20560;-71
2021/12/03 08:28:38;;;;;;;22.98;14.82;;;3.40;77.50;;;;;;4874322;29;20046;-71
2021/12/03 08:31:04;;;;;;;23.10;14.45;;;3.40;77.60;;;;;;4862512;29;20037;-72
2021/12/03 08:33:30;;;;;;;30.92;16.65;;;3.50;77.60;;;;;;4885920;29;20057;-72
2021/12/03 08:35:56;;;;;;;22.20;14.15;;;3.50;77.70;;;;;;4880391;29;20045;-72
2021/12/03 08:38:21;;;;;;;19.92;14.15;;;3.50;77.60;;;;;;4880040;29;20049;-71
2021/12/03 08:40:47;;;;;;;22.40;14.50;;;3.50;77.60;;;;;;4871586;29;20037;-71
2021/12/03 08:43:13;;;;;;;24.13;13.13;;;3.50;77.60;;;;;;4875150;29;20093;-72
2021/12/03 08:45:39;;;;;;;19.77;12.98;;;3.50;77.70;;;;;;4879210;29;20053;-72
2021/12/03 08:48:05;;;;;;;22.58;12.95;;;3.60;77.70;;;;;;4879977;29;20045;-72
2021/12/03 08:50:50;;;;;;;18.70;12.40;;;3.60;77.80;;;;;;4874798;29;20123;-72
2021/12/03 08:55:43;;;;;;;21.95;12.93;;;3.60;77.70;;;;;;4877807;29;20060;-73
2021/12/03 08:58:10;;;;;;;23.30;12.88;;;3.70;77.90;;;;;;4865346;29;20053;-72
2021/12/03 09:00:37;;;;;;;25.17;12.63;;;3.70;77.80;;;;;;4867380;29;20049;-72
2021/12/03 09:03:04;;;;;;;21.75;12.82;;;3.70;78.20;;;;;;4868983;29;20064;-72
2021/12/03 09:05:31;;;;;;;21.17;12.80;;;3.70;77.80;;;;;;4877156;29;20056;-71
2021/12/03 09:07:58;;;;;;;22.85;12.57;;;3.70;78.00;;;;;;4866842;29;20077;-71
2021/12/03 09:10:24;;;;;;;22.20;11.32;;;3.80;77.80;;;;;;4868788;29;20510;-71
2021/12/03 09:12:51;;;;;;;22.63;12.23;;;3.80;77.90;;;;;;4864557;29;20149;-71
2021/12/03 09:15:21;;;;;;;21.80;11.63;;;3.80;77.80;;;;;;4883766;29;20048;-71
2021/12/03 09:23:19;;;;;;;16.70;11.40;;;3.90;77.70;;;;;;4877697;29;20049;-72
2021/12/03 09:25:52;;;;;;;20.00;10.88;;;3.90;77.70;;;;;;4878156;29;20112;-72
2021/12/03 09:28:17;;;;;;;22.95;11.10;;;3.90;77.60;;;;;;4860554;29;20085;-72
2021/12/03 09:30:44;;;;;;;19.13;10.93;;;3.90;77.60;;;;;;4862164;29;20496;-72
2021/12/03 09:33:14;;;;;;;18.60;10.18;;;4.00;77.60;;;;;;4860329;29;20053;-71
2021/12/03 09:35:44;;;;;;;19.88;9.80;;;4.00;77.50;;;;;;4878469;29;20084;-72
2021/12/03 09:38:10;;;;;;;18.45;9.88;;;4.00;77.50;;;;;;4877766;29;20558;-72
2021/12/03 09:40:37;;;;;;;24.52;10.20;;;4.00;77.40;;;;;;4863206;29;20053;-72
2021/12/03 09:43:05;;;;;;;22.75;9.55;;;4.00;77.30;;;;;;4877967;29;20057;-71
2021/12/03 09:45:31;;;;;;;19.52;8.90;;;4.10;77.40;;;;;;4862282;29;20085;-71
2021/12/03 09:47:58;;;;;;;18.38;8.65;;;4.10;77.20;;;;;;4862639;29;20084;-71
2021/12/03 09:50:23;;;;;;;17.65;8.88;;;4.10;77.60;;;;;;4877840;29;20053;-72
2021/12/03 09:53:08;;;;;;;19.30;9.32;;;4.10;77.10;;;;;;4877434;29;20089;-72
2021/12/03 09:55:34;;;;;;;21.85;8.35;;;4.20;77.10;;;;;;4862743;29;20048;-72
2021/12/03 10:03:16;;;;;;;19.10;7.88;;;4.20;76.80;;;;;;4865927;29;20065;-72
2021/12/03 10:25:25;;;;;;;17.00;6.68;;;4.30;75.80;;;;;;4826286;29;20062;-72
2021/12/03 10:30:58;;;;;;;16.85;6.25;;;4.40;75.60;;;;;;4826225;29;20100;-72
2021/12/03 10:44:08;;;;;;;17.88;6.32;;;4.50;75.00;;;;;;4834844;29;20463;-71
2021/12/03 11:38:59;;;;;;;11.25;3.55;;;4.70;73.00;;;;;;4869116;29;20132;-71
2021/12/03 12:27:31;;;;;;;7.28;3.78;;;4.60;73.70;;;;;;4733996;30;20088;-71
2021/12/03 13:18:56;;;;;;;7.30;3.08;;;4.70;74.80;;;;;;4876086;29;20048;-72
2021/12/03 13:21:45;;;;;;;9.38;3.35;;;4.70;74.80;;;;;;4876549;29;20121;-71
2021/12/03 14:00:29;;;;;;;8.55;3.90;;;5.00;73.60;;;;;;4859357;29;20049;-72
2021/12/03 14:59:58;;;;;;;6.68;4.28;;;5.20;73.50;;;;;;4859984;29;20121;-72
2021/12/03 15:05:26;;;;;;;8.77;4.10;;;5.20;73.50;;;;;;4857813;29;20062;-72
2021/12/03 15:07:53;;;;;;;9.02;4.53;;;5.20;73.50;;;;;;4862219;29;20041;-72
2021/12/03 15:10:28;;;;;;;12.68;5.00;;;5.20;73.50;;;;;;4856611;29;20050;-71
2021/12/03 15:23:08;;;;;;;8.95;4.45;;;5.20;73.70;;;;;;4863799;29;20057;-72
2021/12/03 15:30:56;;;;;;;8.35;5.20;;;5.30;73.90;;;;;;4865867;29;20056;-72
2021/12/03 16:10:29;;;;;;;9.48;7.45;;;5.30;74.60;;;;;;4879356;29;20129;-72
2021/12/03 16:52:59;;;;;;;11.20;9.70;;;5.30;75.20;;;;;;4865539;29;20053;-70
2021/12/03 16:55:25;;;;;;;10.60;9.55;;;5.40;75.30;;;;;;4870354;29;20037;-71
2021/12/03 16:57:52;;;;;;;11.05;9.95;;;5.30;75.30;;;;;;4867090;29;20151;-70
2021/12/03 17:00:38;;;;;;;11.63;10.43;;;5.40;75.30;;;;;;4848443;29;20045;-70
2021/12/03 17:03:27;;;;;;;11.57;10.48;;;5.40;75.40;;;;;;4857409;29;20445;-70
2021/12/03 17:13:51;;;;;;;;;;;5.40;75.60;;;;;;4876109;29;20093;-72
2021/12/03 17:47:10;;;;;;;16.15;14.55;;;5.50;76.10;;;;;;4760310;30;20660;-71
2021/12/03 17:57:52;;;;;;;15.88;14.18;;;5.50;76.40;;;;;;5068843;28;20044;-72
2021/12/03 18:00:45;;;;;;;17.30;15.45;;;5.50;76.40;;;;;;5069578;28;20045;-71
2021/12/03 18:03:26;;;;;;;18.60;16.65;;;5.50;76.50;;;;;;5068527;28;20036;-71
2021/12/03 18:10:54;;;;;;;20.20;15.90;;;5.50;76.60;;;;;;5067652;28;20060;-71
2021/12/03 18:55:59;;;;;;;25.20;21.83;;;5.60;77.50;;;;;;5066697;28;20083;-72
2021/12/03 18:58:27;;;;;;;27.27;22.27;;;5.60;77.50;;;;;;5067030;28;20094;-72
2021/12/03 19:00:54;;;;;;;40.80;24.83;;;5.60;77.50;;;;;;5065216;28;20037;-72
2021/12/03 19:08:21;;;;;;;84.63;37.03;;;5.60;77.70;;;;;;5055244;28;20052;-72
2021/12/03 19:10:51;;;;;;;46.67;28.77;;;5.60;77.70;;;;;;5054226;28;20530;-72
2021/12/03 19:13:26;;;;;;;29.83;24.15;;;5.60;77.80;;;;;;5053929;28;20077;-72
2021/12/03 19:15:51;;;;;;;32.15;24.00;;;5.60;77.80;;;;;;5053939;28;20551;-72
2021/12/03 19:18:21;;;;;;;30.27;23.42;;;5.70;77.80;;;;;;5053302;28;20071;-72
2021/12/03 19:20:48;;;;;;;30.33;23.08;;;5.70;77.80;;;;;;5053440;28;20061;-72
2021/12/03 19:23:14;;;;;;;27.20;22.40;;;5.70;77.80;;;;;;5036190;28;20105;-72
2021/12/03 19:25:40;;;;;;;27.88;22.98;;;5.60;77.80;;;;;;5052916;28;20468;-72
2021/12/03 19:28:05;;;;;;;28.40;22.58;;;5.70;77.80;;;;;;5051326;28;20547;-72
2021/12/03 19:30:31;;;;;;;27.00;22.60;;;5.70;77.80;;;;;;5053544;28;20416;-71
2021/12/03 19:32:57;;;;;;;26.58;21.38;;;5.60;77.70;;;;;;5053189;28;20061;-72
2021/12/03 19:35:24;;;;;;;24.88;21.95;;;5.70;77.70;;;;;;5054644;28;20045;-72
2021/12/03 19:37:53;;;;;;;28.33;22.73;;;5.70;77.80;;;;;;5055160;28;20072;-72
2021/12/03 19:40:19;;;;;;;26.38;20.80;;;5.70;77.70;;;;;;5052945;28;20064;-73
2021/12/03 19:42:48;;;;;;;25.80;21.45;;;5.70;77.70;;;;;;5053194;28;20527;-72
2021/12/03 19:45:17;;;;;;;26.98;21.60;;;5.70;77.80;;;;;;5054982;28;20476;-72
2021/12/03 19:47:58;;;;;;;26.45;21.30;;;5.70;77.80;;;;;;5053346;28;20080;-73
2021/12/03 19:53:08;;;;;;;25.70;20.38;;;5.70;77.80;;;;;;5049871;28;20049;-72
2021/12/03 19:55:37;;;;;;;26.70;21.75;;;5.70;77.80;;;;;;5054252;28;20049;-72
2021/12/03 19:58:06;;;;;;;26.83;21.40;;;5.70;77.80;;;;;;5054872;28;20040;-72
2021/12/03 20:00:32;;;;;;;26.15;21.15;;;5.70;77.80;;;;;;5053514;28;20125;-72
2021/12/03 20:02:58;;;;;;;27.55;22.02;;;5.70;78.20;;;;;;5053945;28;20475;-72
2021/12/03 20:05:23;;;;;;;27.98;21.63;;;5.60;77.70;;;;;;5053430;28;20469;-72
2021/12/03 20:07:51;;;;;;;28.88;21.92;;;5.70;77.80;;;;;;5053237;28;20103;-72
2021/12/03 20:10:19;;;;;;;28.45;21.60;;;5.70;78.20;;;;;;5050873;28;20060;-72
2021/12/03 20:12:47;;;;;;;29.15;22.80;;;5.60;77.90;;;;;;5054864;28;20090;-72
2021/12/03 20:15:20;;;;;;;27.85;21.45;;;5.70;77.90;;;;;;5040388;28;20057;-72
2021/12/03 20:17:57;;;;;;;26.30;20.38;;;5.60;77.80;;;;;;5049569;28;20143;-73
2021/12/03 20:20:25;;;;;;;26.48;20.17;;;5.70;77.90;;;;;;5053931;28;20072;-73
2021/12/03 20:23:04;;;;;;;27.00;20.85;;;5.60;77.90;;;;;;5053292;28;20048;-73
2021/12/03 20:25:52;;;;;;;25.45;19.58;;;5.70;78.00;;;;;;5038462;28;20091;-73
2021/12/03 20:28:38;;;;;;;25.45;20.27;;;5.70;78.00;;;;;;5054456;28;20353;-73
2021/12/03 20:31:07;;;;;;;25.65;20.13;;;5.70;78.00;;;;;;5053021;28;20132;-74
2021/12/03 20:39:02;;;;;;;24.10;18.95;;;5.60;78.00;;;;;;5052373;28;20055;-71
2021/12/03 20:41:44;;;;;;;24.67;19.77;;;5.60;78.00;;;;;;5051758;28;20049;-73
2021/12/03 20:49:36;;;;;;;24.15;18.70;;;5.60;78.00;;;;;;5054579;28;20055;-72
2021/12/03 20:57:17;;;;;;;21.63;16.73;;;5.60;78.00;;;;;;5052273;28;20387;-73
2021/12/03 21:07:57;;;;;;;23.25;17.90;;;5.60;78.00;;;;;;5029527;28;20373;-73
2021/12/03 21:10:29;;;;;;;22.23;17.38;;;5.60;78.10;;;;;;5053237;28;20069;-73
2021/12/03 21:12:57;;;;;;;22.27;18.02;;;5.60;78.10;;;;;;5051791;28;20053;-73
2021/12/03 21:18:02;;;;;;;25.00;18.35;;;5.70;78.20;;;;;;5053603;28;20041;-72
2021/12/03 21:20:31;;;;;;;22.40;18.05;;;5.60;78.10;;;;;;5051370;28;20091;-72